sensor_id;sensor_type;location;lat;lon;timestamp;P1;durP1;ratioP1;P2;durP2;ratioP2
4835;SDS011;66719;51.226;6.902;2023-07-31T00:01:12;12.70;;;4.10;;
4835;SDS011;66719;51.226;6.902;2023-07-31T00:03:39;14.80;;;4.77;;
4835;SDS011;66719;51.226;6.902;2023-07-31T00:06:05;13.00;;;3.97;;
4835;SDS011;66719;51.226;6.902;2023-07-31T00:08:32;15.10;;;4.50;;
4835;SDS011;66719;51.226;6.902;2023-07-31T00:10:58;14.17;;;4.07;;
4835;SDS011;66719;51.226;6.902;2023-07-31T00:13:25;13.90;;;3.70;;
4835;SDS011;66719;51.226;6.902;2023-07-31T00:15:51;10.43;;;3.90;;
4835;SDS011;66719;51.226;6.902;2023-07-31T00:18:18;18.03;;;4.07;;
4835;SDS011;66719;51.226;6.902;2023-07-31T00:20:44;17.73;;;3.93;;
4835;SDS011;66719;51.226;6.902;2023-07-31T00:23:11;13.70;;;4.17;;
4835;SDS011;66719;51.226;6.902;2023-07-31T00:25:37;15.23;;;3.97;;
4835;SDS011;66719;51.226;6.902;2023-07-31T00:28:04;13.03;;;4.10;;
4835;SDS011;66719;51.226;6.902;2023-07-31T00:30:31;17.87;;;5.00;;
4835;SDS011;66719;51.226;6.902;2023-07-31T00:32:58;14.20;;;4.67;;
4835;SDS011;66719;51.226;6.902;2023-07-31T00:35:24;13.83;;;4.00;;
4835;SDS011;66719;51.226;6.902;2023-07-31T00:37:51;12.33;;;3.80;;
4835;SDS011;66719;51.226;6.902;2023-07-31T00:40:17;13.00;;;4.70;;
4835;SDS011;66719;51.226;6.902;2023-07-31T00:42:44;15.10;;;3.70;;
4835;SDS011;66719;51.226;6.902;2023-07-31T00:45:10;16.00;;;5.10;;
4835;SDS011;66719;51.226;6.902;2023-07-31T00:47:37;14.13;;;4.00;;
4835;SDS011;66719;51.226;6.902;2023-07-31T00:50:04;15.83;;;4.20;;
4835;SDS011;66719;51.226;6.902;2023-07-31T00:52:31;19.67;;;4.90;;
4835;SDS011;66719;51.226;6.902;2023-07-31T00:54:58;15.53;;;4.63;;
4835;SDS011;66719;51.226;6.902;2023-07-31T00:57:25;16.20;;;3.83;;
4835;SDS011;66719;51.226;6.902;2023-07-31T00:59:52;14.63;;;3.97;;
4835;SDS011;66719;51.226;6.902;2023-07-31T01:02:18;13.80;;;4.17;;
4835;SDS011;66719;51.226;6.902;2023-07-31T01:04:45;13.87;;;4.00;;
4835;SDS011;66719;51.226;6.902;2023-07-31T01:07:21;13.40;;;4.07;;
4835;SDS011;66719;51.226;6.902;2023-07-31T01:09:52;14.57;;;3.80;;
4835;SDS011;66719;51.226;6.902;2023-07-31T01:12:32;17.43;;;4.83;;
4835;SDS011;66719;51.226;6.902;2023-07-31T01:17:27;18.93;;;4.23;;
4835;SDS011;66719;51.226;6.902;2023-07-31T01:19:54;18.57;;;4.77;;
4835;SDS011;66719;51.226;6.902;2023-07-31T01:25:06;19.60;;;5.03;;
4835;SDS011;66719;51.226;6.902;2023-07-31T01:28:05;19.50;;;4.80;;
4835;SDS011;66719;51.226;6.902;2023-07-31T01:30:37;18.90;;;4.80;;
4835;SDS011;66719;51.226;6.902;2023-07-31T01:33:10;16.97;;;4.57;;
4835;SDS011;66719;51.226;6.902;2023-07-31T01:35:37;18.23;;;4.83;;
4835;SDS011;66719;51.226;6.902;2023-07-31T01:38:04;16.63;;;4.33;;
4835;SDS011;66719;51.226;6.902;2023-07-31T01:40:32;17.53;;;4.30;;
4835;SDS011;66719;51.226;6.902;2023-07-31T01:42:58;14.60;;;4.37;;
4835;SDS011;66719;51.226;6.902;2023-07-31T01:45:25;16.33;;;4.10;;
4835;SDS011;66719;51.226;6.902;2023-07-31T01:47:51;28.37;;;5.40;;
4835;SDS011;66719;51.226;6.902;2023-07-31T01:50:18;15.27;;;4.40;;
4835;SDS011;66719;51.226;6.902;2023-07-31T01:52:45;15.53;;;4.40;;
4835;SDS011;66719;51.226;6.902;2023-07-31T01:55:11;14.57;;;4.70;;
4835;SDS011;66719;51.226;6.902;2023-07-31T01:57:38;18.23;;;4.40;;
4835;SDS011;66719;51.226;6.902;2023-07-31T02:00:05;15.13;;;4.93;;
4835;SDS011;66719;51.226;6.902;2023-07-31T02:02:32;16.60;;;4.47;;
4835;SDS011;66719;51.226;6.902;2023-07-31T02:04:59;13.60;;;5.17;;
4835;SDS011;66719;51.226;6.902;2023-07-31T02:07:25;18.30;;;4.67;;
4835;SDS011;66719;51.226;6.902;2023-07-31T02:09:52;15.63;;;4.80;;
4835;SDS011;66719;51.226;6.902;2023-07-31T02:12:20;18.50;;;5.10;;
4835;SDS011;66719;51.226;6.902;2023-07-31T02:14:46;17.73;;;4.40;;
4835;SDS011;66719;51.226;6.902;2023-07-31T02:17:13;18.53;;;4.77;;
4835;SDS011;66719;51.226;6.902;2023-07-31T02:19:39;13.60;;;3.90;;
4835;SDS011;66719;51.226;6.902;2023-07-31T02:22:06;18.87;;;4.53;;
4835;SDS011;66719;51.226;6.902;2023-07-31T02:24:32;15.17;;;5.17;;
4835;SDS011;66719;51.226;6.902;2023-07-31T02:26:59;14.37;;;4.80;;
4835;SDS011;66719;51.226;6.902;2023-07-31T02:29:25;17.53;;;4.83;;
4835;SDS011;66719;51.226;6.902;2023-07-31T02:31:52;16.07;;;4.53;;
4835;SDS011;66719;51.226;6.902;2023-07-31T02:34:18;18.00;;;5.37;;
4835;SDS011;66719;51.226;6.902;2023-07-31T02:36:45;12.87;;;4.57;;
4835;SDS011;66719;51.226;6.902;2023-07-31T02:39:11;18.50;;;4.80;;
4835;SDS011;66719;51.226;6.902;2023-07-31T02:41:37;17.20;;;4.73;;
4835;SDS011;66719;51.226;6.902;2023-07-31T02:44:04;12.77;;;3.90;;
4835;SDS011;66719;51.226;6.902;2023-07-31T02:46:30;17.73;;;4.87;;
4835;SDS011;66719;51.226;6.902;2023-07-31T02:48:57;13.67;;;4.67;;
4835;SDS011;66719;51.226;6.902;2023-07-31T02:51:24;14.97;;;4.10;;
4835;SDS011;66719;51.226;6.902;2023-07-31T02:53:50;12.33;;;4.27;;
4835;SDS011;66719;51.226;6.902;2023-07-31T02:56:17;15.07;;;4.50;;
4835;SDS011;66719;51.226;6.902;2023-07-31T02:58:44;17.20;;;4.50;;
4835;SDS011;66719;51.226;6.902;2023-07-31T03:01:10;17.13;;;4.10;;
4835;SDS011;66719;51.226;6.902;2023-07-31T03:03:37;17.43;;;4.30;;
4835;SDS011;66719;51.226;6.902;2023-07-31T03:06:04;12.93;;;4.27;;
4835;SDS011;66719;51.226;6.902;2023-07-31T03:08:30;19.30;;;5.20;;
4835;SDS011;66719;51.226;6.902;2023-07-31T03:10:57;16.00;;;4.57;;
4835;SDS011;66719;51.226;6.902;2023-07-31T03:13:23;16.30;;;5.27;;
4835;SDS011;66719;51.226;6.902;2023-07-31T03:15:50;18.93;;;4.50;;
4835;SDS011;66719;51.226;6.902;2023-07-31T03:18:17;18.20;;;4.40;;
4835;SDS011;66719;51.226;6.902;2023-07-31T03:20:43;12.87;;;3.87;;
4835;SDS011;66719;51.226;6.902;2023-07-31T03:23:10;18.23;;;4.73;;
4835;SDS011;66719;51.226;6.902;2023-07-31T03:25:37;18.30;;;5.03;;
4835;SDS011;66719;51.226;6.902;2023-07-31T03:28:03;20.10;;;4.80;;
4835;SDS011;66719;51.226;6.902;2023-07-31T03:30:30;20.70;;;5.70;;
4835;SDS011;66719;51.226;6.902;2023-07-31T03:32:56;16.13;;;4.40;;
4835;SDS011;66719;51.226;6.902;2023-07-31T03:35:23;16.70;;;5.20;;
4835;SDS011;66719;51.226;6.902;2023-07-31T03:37:50;20.43;;;4.73;;
4835;SDS011;66719;51.226;6.902;2023-07-31T03:40:16;14.63;;;4.47;;
4835;SDS011;66719;51.226;6.902;2023-07-31T03:42:43;18.30;;;4.50;;
4835;SDS011;66719;51.226;6.902;2023-07-31T03:45:09;19.23;;;4.53;;
4835;SDS011;66719;51.226;6.902;2023-07-31T03:47:36;20.57;;;4.87;;
4835;SDS011;66719;51.226;6.902;2023-07-31T03:50:02;19.03;;;4.60;;
4835;SDS011;66719;51.226;6.902;2023-07-31T03:52:29;14.47;;;5.03;;
4835;SDS011;66719;51.226;6.902;2023-07-31T03:54:56;15.77;;;4.90;;
4835;SDS011;66719;51.226;6.902;2023-07-31T03:57:23;14.30;;;3.90;;
4835;SDS011;66719;51.226;6.902;2023-07-31T03:59:49;15.17;;;4.47;;
4835;SDS011;66719;51.226;6.902;2023-07-31T04:02:16;16.37;;;4.37;;
4835;SDS011;66719;51.226;6.902;2023-07-31T04:04:44;19.73;;;4.53;;
4835;SDS011;66719;51.226;6.902;2023-07-31T04:07:11;20.00;;;4.63;;
4835;SDS011;66719;51.226;6.902;2023-07-31T04:09:38;21.70;;;5.20;;
4835;SDS011;66719;51.226;6.902;2023-07-31T04:12:04;20.20;;;5.20;;
4835;SDS011;66719;51.226;6.902;2023-07-31T04:14:31;20.17;;;4.93;;
4835;SDS011;66719;51.226;6.902;2023-07-31T04:16:57;17.17;;;5.60;;
4835;SDS011;66719;51.226;6.902;2023-07-31T04:19:24;14.13;;;4.43;;
4835;SDS011;66719;51.226;6.902;2023-07-31T04:21:50;19.50;;;4.77;;
4835;SDS011;66719;51.226;6.902;2023-07-31T04:24:17;12.93;;;4.67;;
4835;SDS011;66719;51.226;6.902;2023-07-31T04:26:51;18.13;;;4.83;;
4835;SDS011;66719;51.226;6.902;2023-07-31T04:29:19;16.23;;;5.13;;
4835;SDS011;66719;51.226;6.902;2023-07-31T04:31:45;16.67;;;4.80;;
4835;SDS011;66719;51.226;6.902;2023-07-31T04:34:12;15.10;;;5.17;;
4835;SDS011;66719;51.226;6.902;2023-07-31T04:36:39;14.80;;;4.70;;
4835;SDS011;66719;51.226;6.902;2023-07-31T04:39:06;16.93;;;4.90;;
4835;SDS011;66719;51.226;6.902;2023-07-31T04:41:32;13.63;;;4.60;;
4835;SDS011;66719;51.226;6.902;2023-07-31T04:43:59;17.33;;;5.47;;
4835;SDS011;66719;51.226;6.902;2023-07-31T04:46:25;16.40;;;5.63;;
4835;SDS011;66719;51.226;6.902;2023-07-31T04:48:52;19.13;;;5.60;;
4835;SDS011;66719;51.226;6.902;2023-07-31T04:51:18;16.57;;;4.80;;
4835;SDS011;66719;51.226;6.902;2023-07-31T04:53:45;15.97;;;4.07;;
4835;SDS011;66719;51.226;6.902;2023-07-31T04:56:11;24.17;;;11.67;;
4835;SDS011;66719;51.226;6.902;2023-07-31T04:58:38;25.53;;;9.30;;
4835;SDS011;66719;51.226;6.902;2023-07-31T05:01:05;14.17;;;5.83;;
4835;SDS011;66719;51.226;6.902;2023-07-31T05:03:31;16.83;;;5.60;;
4835;SDS011;66719;51.226;6.902;2023-07-31T05:05:58;14.47;;;5.30;;
4835;SDS011;66719;51.226;6.902;2023-07-31T05:08:24;14.17;;;4.90;;
4835;SDS011;66719;51.226;6.902;2023-07-31T05:10:51;16.40;;;4.60;;
4835;SDS011;66719;51.226;6.902;2023-07-31T05:13:18;10.83;;;4.97;;
4835;SDS011;66719;51.226;6.902;2023-07-31T05:15:45;14.87;;;4.90;;
4835;SDS011;66719;51.226;6.902;2023-07-31T05:18:11;12.10;;;5.20;;
4835;SDS011;66719;51.226;6.902;2023-07-31T05:20:38;14.80;;;5.40;;
4835;SDS011;66719;51.226;6.902;2023-07-31T05:23:04;14.20;;;6.20;;
4835;SDS011;66719;51.226;6.902;2023-07-31T05:25:31;13.43;;;4.70;;
4835;SDS011;66719;51.226;6.902;2023-07-31T05:27:58;16.30;;;5.90;;
4835;SDS011;66719;51.226;6.902;2023-07-31T05:30:24;17.17;;;4.80;;
4835;SDS011;66719;51.226;6.902;2023-07-31T05:32:51;11.50;;;4.63;;
4835;SDS011;66719;51.226;6.902;2023-07-31T05:35:18;15.10;;;5.30;;
4835;SDS011;66719;51.226;6.902;2023-07-31T05:37:45;11.60;;;4.40;;
4835;SDS011;66719;51.226;6.902;2023-07-31T05:40:11;12.80;;;4.80;;
4835;SDS011;66719;51.226;6.902;2023-07-31T05:42:38;15.00;;;4.90;;
4835;SDS011;66719;51.226;6.902;2023-07-31T05:45:05;12.90;;;4.80;;
4835;SDS011;66719;51.226;6.902;2023-07-31T05:47:33;19.13;;;5.73;;
4835;SDS011;66719;51.226;6.902;2023-07-31T05:50:00;18.10;;;5.43;;
4835;SDS011;66719;51.226;6.902;2023-07-31T05:52:26;14.13;;;5.47;;
4835;SDS011;66719;51.226;6.902;2023-07-31T05:54:55;18.43;;;4.93;;
4835;SDS011;66719;51.226;6.902;2023-07-31T05:57:21;14.90;;;4.90;;
4835;SDS011;66719;51.226;6.902;2023-07-31T05:59:48;16.77;;;6.67;;
4835;SDS011;66719;51.226;6.902;2023-07-31T06:02:14;18.50;;;5.50;;
4835;SDS011;66719;51.226;6.902;2023-07-31T06:04:41;13.33;;;5.07;;
4835;SDS011;66719;51.226;6.902;2023-07-31T06:07:08;10.83;;;4.37;;
4835;SDS011;66719;51.226;6.902;2023-07-31T06:09:34;14.80;;;5.13;;
4835;SDS011;66719;51.226;6.902;2023-07-31T06:12:01;14.20;;;4.60;;
4835;SDS011;66719;51.226;6.902;2023-07-31T06:14:27;15.43;;;5.20;;
4835;SDS011;66719;51.226;6.902;2023-07-31T06:16:54;12.93;;;4.70;;
4835;SDS011;66719;51.226;6.902;2023-07-31T06:19:20;20.53;;;4.90;;
4835;SDS011;66719;51.226;6.902;2023-07-31T06:21:47;12.73;;;4.50;;
4835;SDS011;66719;51.226;6.902;2023-07-31T06:24:13;13.13;;;4.20;;
4835;SDS011;66719;51.226;6.902;2023-07-31T06:26:45;14.90;;;4.77;;
4835;SDS011;66719;51.226;6.902;2023-07-31T06:29:11;14.53;;;4.83;;
4835;SDS011;66719;51.226;6.902;2023-07-31T06:31:38;11.03;;;4.10;;
4835;SDS011;66719;51.226;6.902;2023-07-31T06:34:04;13.30;;;5.57;;
4835;SDS011;66719;51.226;6.902;2023-07-31T06:36:31;16.53;;;4.57;;
4835;SDS011;66719;51.226;6.902;2023-07-31T06:38:57;15.97;;;4.57;;
4835;SDS011;66719;51.226;6.902;2023-07-31T06:41:24;12.80;;;5.30;;
4835;SDS011;66719;51.226;6.902;2023-07-31T06:43:50;16.77;;;4.80;;
4835;SDS011;66719;51.226;6.902;2023-07-31T06:46:17;16.43;;;4.90;;
4835;SDS011;66719;51.226;6.902;2023-07-31T06:48:44;13.37;;;4.40;;
4835;SDS011;66719;51.226;6.902;2023-07-31T06:51:10;12.50;;;4.87;;
4835;SDS011;66719;51.226;6.902;2023-07-31T06:53:37;12.20;;;5.17;;
4835;SDS011;66719;51.226;6.902;2023-07-31T06:56:03;14.57;;;4.67;;
4835;SDS011;66719;51.226;6.902;2023-07-31T06:58:30;14.23;;;4.83;;
4835;SDS011;66719;51.226;6.902;2023-07-31T07:00:56;10.70;;;4.13;;
4835;SDS011;66719;51.226;6.902;2023-07-31T07:03:23;11.93;;;4.23;;
4835;SDS011;66719;51.226;6.902;2023-07-31T07:05:50;16.20;;;4.30;;
4835;SDS011;66719;51.226;6.902;2023-07-31T07:08:16;10.83;;;4.00;;
4835;SDS011;66719;51.226;6.902;2023-07-31T07:10:43;12.57;;;4.13;;
4835;SDS011;66719;51.226;6.902;2023-07-31T07:13:10;18.03;;;5.60;;
4835;SDS011;66719;51.226;6.902;2023-07-31T07:15:38;13.17;;;4.80;;
4835;SDS011;66719;51.226;6.902;2023-07-31T07:18:05;10.37;;;4.27;;
4835;SDS011;66719;51.226;6.902;2023-07-31T07:20:32;12.53;;;4.67;;
4835;SDS011;66719;51.226;6.902;2023-07-31T07:22:58;14.23;;;4.47;;
4835;SDS011;66719;51.226;6.902;2023-07-31T07:25:25;12.87;;;4.50;;
4835;SDS011;66719;51.226;6.902;2023-07-31T07:27:51;15.27;;;4.93;;
4835;SDS011;66719;51.226;6.902;2023-07-31T07:30:18;16.60;;;5.00;;
4835;SDS011;66719;51.226;6.902;2023-07-31T07:32:46;13.33;;;4.50;;
4835;SDS011;66719;51.226;6.902;2023-07-31T07:35:12;17.60;;;4.37;;
4835;SDS011;66719;51.226;6.902;2023-07-31T07:37:39;14.50;;;4.13;;
4835;SDS011;66719;51.226;6.902;2023-07-31T07:40:06;13.87;;;4.40;;
4835;SDS011;66719;51.226;6.902;2023-07-31T07:42:33;17.00;;;5.93;;
4835;SDS011;66719;51.226;6.902;2023-07-31T07:44:59;15.40;;;4.93;;
4835;SDS011;66719;51.226;6.902;2023-07-31T07:47:26;13.20;;;4.13;;
4835;SDS011;66719;51.226;6.902;2023-07-31T07:49:54;14.50;;;4.60;;
4835;SDS011;66719;51.226;6.902;2023-07-31T07:52:21;13.37;;;4.47;;
4835;SDS011;66719;51.226;6.902;2023-07-31T07:54:47;12.83;;;4.83;;
4835;SDS011;66719;51.226;6.902;2023-07-31T07:57:14;17.93;;;5.17;;
4835;SDS011;66719;51.226;6.902;2023-07-31T07:59:41;12.63;;;4.57;;
4835;SDS011;66719;51.226;6.902;2023-07-31T08:02:07;12.10;;;4.30;;
4835;SDS011;66719;51.226;6.902;2023-07-31T08:04:34;15.90;;;4.50;;
4835;SDS011;66719;51.226;6.902;2023-07-31T08:07:00;12.63;;;4.60;;
4835;SDS011;66719;51.226;6.902;2023-07-31T08:09:27;14.03;;;4.80;;
4835;SDS011;66719;51.226;6.902;2023-07-31T08:11:54;13.37;;;4.60;;
4835;SDS011;66719;51.226;6.902;2023-07-31T08:14:20;16.30;;;4.17;;
4835;SDS011;66719;51.226;6.902;2023-07-31T08:16:47;13.03;;;4.80;;
4835;SDS011;66719;51.226;6.902;2023-07-31T08:19:14;18.17;;;8.43;;
4835;SDS011;66719;51.226;6.902;2023-07-31T08:21:40;13.60;;;4.83;;
4835;SDS011;66719;51.226;6.902;2023-07-31T08:24:07;13.73;;;3.67;;
4835;SDS011;66719;51.226;6.902;2023-07-31T08:26:34;12.10;;;4.10;;
4835;SDS011;66719;51.226;6.902;2023-07-31T08:29:01;18.67;;;6.70;;
4835;SDS011;66719;51.226;6.902;2023-07-31T08:31:27;14.40;;;5.03;;
4835;SDS011;66719;51.226;6.902;2023-07-31T08:33:55;10.67;;;4.27;;
4835;SDS011;66719;51.226;6.902;2023-07-31T08:36:22;14.70;;;4.53;;
4835;SDS011;66719;51.226;6.902;2023-07-31T08:38:49;11.40;;;4.20;;
4835;SDS011;66719;51.226;6.902;2023-07-31T08:41:16;12.27;;;3.70;;
4835;SDS011;66719;51.226;6.902;2023-07-31T08:43:46;18.53;;;6.83;;
4835;SDS011;66719;51.226;6.902;2023-07-31T08:46:12;12.80;;;4.90;;
4835;SDS011;66719;51.226;6.902;2023-07-31T08:48:41;11.57;;;3.70;;
4835;SDS011;66719;51.226;6.902;2023-07-31T08:51:09;9.40;;;3.77;;
4835;SDS011;66719;51.226;6.902;2023-07-31T08:53:35;13.07;;;3.93;;
4835;SDS011;66719;51.226;6.902;2023-07-31T08:56:02;9.80;;;4.03;;
4835;SDS011;66719;51.226;6.902;2023-07-31T08:58:30;11.07;;;3.90;;
4835;SDS011;66719;51.226;6.902;2023-07-31T09:01:01;10.10;;;3.70;;
4835;SDS011;66719;51.226;6.902;2023-07-31T09:03:31;13.23;;;4.33;;
4835;SDS011;66719;51.226;6.902;2023-07-31T09:06:00;15.30;;;5.43;;
4835;SDS011;66719;51.226;6.902;2023-07-31T09:08:30;12.43;;;4.30;;
4835;SDS011;66719;51.226;6.902;2023-07-31T09:11:01;8.90;;;3.40;;
4835;SDS011;66719;51.226;6.902;2023-07-31T09:13:29;12.17;;;4.00;;
4835;SDS011;66719;51.226;6.902;2023-07-31T09:19:44;10.80;;;3.60;;
4835;SDS011;66719;51.226;6.902;2023-07-31T09:22:10;10.13;;;3.63;;
4835;SDS011;66719;51.226;6.902;2023-07-31T09:24:37;11.30;;;3.67;;
4835;SDS011;66719;51.226;6.902;2023-07-31T09:27:05;11.53;;;4.27;;
4835;SDS011;66719;51.226;6.902;2023-07-31T09:29:32;12.57;;;3.80;;
4835;SDS011;66719;51.226;6.902;2023-07-31T09:31:58;12.50;;;4.30;;
4835;SDS011;66719;51.226;6.902;2023-07-31T09:34:29;9.67;;;3.53;;
4835;SDS011;66719;51.226;6.902;2023-07-31T09:37:02;11.33;;;5.20;;
4835;SDS011;66719;51.226;6.902;2023-07-31T09:39:29;15.80;;;5.37;;
4835;SDS011;66719;51.226;6.902;2023-07-31T09:41:56;14.63;;;4.00;;
4835;SDS011;66719;51.226;6.902;2023-07-31T09:44:39;15.77;;;5.30;;
4835;SDS011;66719;51.226;6.902;2023-07-31T09:47:13;11.57;;;4.30;;
4835;SDS011;66719;51.226;6.902;2023-07-31T09:49:47;12.47;;;4.43;;
4835;SDS011;66719;51.226;6.902;2023-07-31T09:52:14;10.97;;;4.60;;
4835;SDS011;66719;51.226;6.902;2023-07-31T09:54:41;12.70;;;3.90;;
4835;SDS011;66719;51.226;6.902;2023-07-31T09:57:07;11.10;;;4.40;;
4835;SDS011;66719;51.226;6.902;2023-07-31T09:59:35;11.27;;;4.30;;
4835;SDS011;66719;51.226;6.902;2023-07-31T10:02:02;13.30;;;3.97;;
4835;SDS011;66719;51.226;6.902;2023-07-31T10:04:29;11.63;;;4.20;;
4835;SDS011;66719;51.226;6.902;2023-07-31T10:06:56;13.63;;;4.27;;
4835;SDS011;66719;51.226;6.902;2023-07-31T10:09:27;11.40;;;3.40;;
4835;SDS011;66719;51.226;6.902;2023-07-31T10:12:00;13.03;;;4.50;;
4835;SDS011;66719;51.226;6.902;2023-07-31T10:14:36;15.43;;;3.83;;
4835;SDS011;66719;51.226;6.902;2023-07-31T10:17:03;10.77;;;4.10;;
4835;SDS011;66719;51.226;6.902;2023-07-31T10:19:31;10.00;;;3.90;;
4835;SDS011;66719;51.226;6.902;2023-07-31T10:21:59;20.40;;;11.40;;
4835;SDS011;66719;51.226;6.902;2023-07-31T10:24:26;15.80;;;6.30;;
4835;SDS011;66719;51.226;6.902;2023-07-31T10:26:54;12.57;;;4.20;;
4835;SDS011;66719;51.226;6.902;2023-07-31T10:29:24;15.17;;;4.30;;
4835;SDS011;66719;51.226;6.902;2023-07-31T10:31:52;11.03;;;4.70;;
4835;SDS011;66719;51.226;6.902;2023-07-31T10:34:19;14.50;;;4.40;;
4835;SDS011;66719;51.226;6.902;2023-07-31T10:36:46;20.30;;;7.47;;
4835;SDS011;66719;51.226;6.902;2023-07-31T10:42:10;11.73;;;4.20;;
4835;SDS011;66719;51.226;6.902;2023-07-31T10:44:37;13.07;;;4.60;;
4835;SDS011;66719;51.226;6.902;2023-07-31T10:47:06;14.10;;;4.83;;
4835;SDS011;66719;51.226;6.902;2023-07-31T10:49:34;12.63;;;4.30;;
4835;SDS011;66719;51.226;6.902;2023-07-31T10:52:02;11.20;;;4.30;;
4835;SDS011;66719;51.226;6.902;2023-07-31T10:54:30;16.73;;;5.10;;
4835;SDS011;66719;51.226;6.902;2023-07-31T10:56:56;15.80;;;4.40;;
4835;SDS011;66719;51.226;6.902;2023-07-31T10:59:26;13.83;;;4.10;;
4835;SDS011;66719;51.226;6.902;2023-07-31T11:01:55;11.80;;;4.00;;
4835;SDS011;66719;51.226;6.902;2023-07-31T11:04:27;11.63;;;4.03;;
4835;SDS011;66719;51.226;6.902;2023-07-31T11:06:57;12.17;;;4.20;;
4835;SDS011;66719;51.226;6.902;2023-07-31T11:09:29;14.23;;;4.10;;
4835;SDS011;66719;51.226;6.902;2023-07-31T11:11:58;10.40;;;3.73;;
4835;SDS011;66719;51.226;6.902;2023-07-31T11:14:25;12.13;;;3.90;;
4835;SDS011;66719;51.226;6.902;2023-07-31T11:16:52;10.67;;;3.40;;
4835;SDS011;66719;51.226;6.902;2023-07-31T11:19:22;12.10;;;3.07;;
4835;SDS011;66719;51.226;6.902;2023-07-31T11:21:53;10.50;;;3.83;;
4835;SDS011;66719;51.226;6.902;2023-07-31T11:24:20;11.40;;;3.40;;
4835;SDS011;66719;51.226;6.902;2023-07-31T11:26:53;12.00;;;3.53;;
4835;SDS011;66719;51.226;6.902;2023-07-31T11:29:20;9.10;;;2.80;;
4835;SDS011;66719;51.226;6.902;2023-07-31T11:31:47;8.77;;;2.60;;
4835;SDS011;66719;51.226;6.902;2023-07-31T11:34:15;8.53;;;2.50;;
4835;SDS011;66719;51.226;6.902;2023-07-31T11:36:52;7.00;;;2.00;;
4835;SDS011;66719;51.226;6.902;2023-07-31T11:39:22;8.57;;;2.30;;
4835;SDS011;66719;51.226;6.902;2023-07-31T11:41:48;7.53;;;2.40;;
4835;SDS011;66719;51.226;6.902;2023-07-31T11:44:15;10.17;;;2.03;;
4835;SDS011;66719;51.226;6.902;2023-07-31T11:46:51;7.97;;;2.10;;
4835;SDS011;66719;51.226;6.902;2023-07-31T11:49:18;8.20;;;2.23;;
4835;SDS011;66719;51.226;6.902;2023-07-31T11:51:45;7.90;;;2.30;;
4835;SDS011;66719;51.226;6.902;2023-07-31T11:54:11;7.77;;;2.10;;
4835;SDS011;66719;51.226;6.902;2023-07-31T11:56:40;8.87;;;2.50;;
4835;SDS011;66719;51.226;6.902;2023-07-31T11:59:07;7.43;;;2.20;;
4835;SDS011;66719;51.226;6.902;2023-07-31T12:01:34;9.80;;;2.63;;
4835;SDS011;66719;51.226;6.902;2023-07-31T12:04:01;7.03;;;2.20;;
4835;SDS011;66719;51.226;6.902;2023-07-31T12:06:34;8.57;;;2.40;;
4835;SDS011;66719;51.226;6.902;2023-07-31T12:09:03;9.37;;;2.10;;
4835;SDS011;66719;51.226;6.902;2023-07-31T12:11:30;7.00;;;2.00;;
4835;SDS011;66719;51.226;6.902;2023-07-31T12:13:56;7.13;;;2.40;;
4835;SDS011;66719;51.226;6.902;2023-07-31T12:16:26;8.13;;;2.47;;
4835;SDS011;66719;51.226;6.902;2023-07-31T12:18:53;8.20;;;2.67;;
4835;SDS011;66719;51.226;6.902;2023-07-31T12:21:20;7.57;;;2.20;;
4835;SDS011;66719;51.226;6.902;2023-07-31T12:23:47;7.77;;;2.20;;
4835;SDS011;66719;51.226;6.902;2023-07-31T12:26:14;9.33;;;2.13;;
4835;SDS011;66719;51.226;6.902;2023-07-31T12:28:44;8.57;;;2.80;;
4835;SDS011;66719;51.226;6.902;2023-07-31T12:31:20;7.13;;;2.37;;
4835;SDS011;66719;51.226;6.902;2023-07-31T12:33:48;7.63;;;2.37;;
4835;SDS011;66719;51.226;6.902;2023-07-31T12:36:23;7.43;;;2.40;;
4835;SDS011;66719;51.226;6.902;2023-07-31T12:38:51;7.97;;;2.83;;
4835;SDS011;66719;51.226;6.902;2023-07-31T12:41:18;9.70;;;2.90;;
4835;SDS011;66719;51.226;6.902;2023-07-31T12:43:45;6.70;;;2.20;;
4835;SDS011;66719;51.226;6.902;2023-07-31T12:46:12;8.37;;;2.63;;
4835;SDS011;66719;51.226;6.902;2023-07-31T12:48:39;9.20;;;2.40;;
4835;SDS011;66719;51.226;6.902;2023-07-31T12:51:06;7.80;;;2.53;;
4835;SDS011;66719;51.226;6.902;2023-07-31T12:53:34;7.50;;;2.43;;
4835;SDS011;66719;51.226;6.902;2023-07-31T12:56:01;7.37;;;2.50;;
4835;SDS011;66719;51.226;6.902;2023-07-31T12:58:28;10.43;;;2.70;;
4835;SDS011;66719;51.226;6.902;2023-07-31T13:00:54;11.47;;;4.90;;
4835;SDS011;66719;51.226;6.902;2023-07-31T13:03:21;16.60;;;3.70;;
4835;SDS011;66719;51.226;6.902;2023-07-31T13:05:48;8.33;;;2.70;;
4835;SDS011;66719;51.226;6.902;2023-07-31T13:08:14;10.03;;;3.00;;
4835;SDS011;66719;51.226;6.902;2023-07-31T13:10:42;9.73;;;2.83;;
4835;SDS011;66719;51.226;6.902;2023-07-31T13:13:09;9.67;;;3.57;;
4835;SDS011;66719;51.226;6.902;2023-07-31T13:15:36;9.10;;;3.37;;
4835;SDS011;66719;51.226;6.902;2023-07-31T13:18:03;10.00;;;2.87;;
4835;SDS011;66719;51.226;6.902;2023-07-31T13:20:29;16.53;;;7.50;;
4835;SDS011;66719;51.226;6.902;2023-07-31T13:22:56;9.83;;;3.63;;
4835;SDS011;66719;51.226;6.902;2023-07-31T13:25:22;10.93;;;3.57;;
4835;SDS011;66719;51.226;6.902;2023-07-31T13:27:49;10.60;;;3.27;;
4835;SDS011;66719;51.226;6.902;2023-07-31T13:30:15;10.50;;;3.60;;
4835;SDS011;66719;51.226;6.902;2023-07-31T13:32:42;9.53;;;3.10;;
4835;SDS011;66719;51.226;6.902;2023-07-31T13:35:08;10.03;;;3.60;;
4835;SDS011;66719;51.226;6.902;2023-07-31T13:37:37;11.03;;;3.87;;
4835;SDS011;66719;51.226;6.902;2023-07-31T13:40:04;9.80;;;3.27;;
4835;SDS011;66719;51.226;6.902;2023-07-31T13:42:31;9.90;;;3.50;;
4835;SDS011;66719;51.226;6.902;2023-07-31T13:44:59;11.03;;;3.60;;
4835;SDS011;66719;51.226;6.902;2023-07-31T13:47:25;16.83;;;3.77;;
4835;SDS011;66719;51.226;6.902;2023-07-31T13:49:52;9.83;;;3.93;;
4835;SDS011;66719;51.226;6.902;2023-07-31T13:52:18;8.67;;;3.30;;
4835;SDS011;66719;51.226;6.902;2023-07-31T13:54:45;9.67;;;3.73;;
4835;SDS011;66719;51.226;6.902;2023-07-31T13:57:12;11.87;;;3.97;;
4835;SDS011;66719;51.226;6.902;2023-07-31T13:59:38;10.03;;;3.03;;
4835;SDS011;66719;51.226;6.902;2023-07-31T14:02:05;12.30;;;5.07;;
4835;SDS011;66719;51.226;6.902;2023-07-31T14:04:31;9.80;;;3.90;;
4835;SDS011;66719;51.226;6.902;2023-07-31T14:06:58;9.83;;;3.57;;
4835;SDS011;66719;51.226;6.902;2023-07-31T14:09:25;11.83;;;4.97;;
4835;SDS011;66719;51.226;6.902;2023-07-31T14:11:52;10.37;;;4.33;;
4835;SDS011;66719;51.226;6.902;2023-07-31T14:14:19;11.87;;;3.80;;
4835;SDS011;66719;51.226;6.902;2023-07-31T14:16:46;11.20;;;3.83;;
4835;SDS011;66719;51.226;6.902;2023-07-31T14:19:12;8.37;;;3.30;;
4835;SDS011;66719;51.226;6.902;2023-07-31T14:21:39;10.10;;;3.53;;
4835;SDS011;66719;51.226;6.902;2023-07-31T14:24:06;9.20;;;3.13;;
4835;SDS011;66719;51.226;6.902;2023-07-31T14:26:32;10.83;;;3.17;;
4835;SDS011;66719;51.226;6.902;2023-07-31T14:28:59;11.37;;;3.50;;
4835;SDS011;66719;51.226;6.902;2023-07-31T14:31:25;9.13;;;3.40;;
4835;SDS011;66719;51.226;6.902;2023-07-31T14:33:52;9.67;;;3.13;;
4835;SDS011;66719;51.226;6.902;2023-07-31T14:36:22;9.20;;;3.60;;
4835;SDS011;66719;51.226;6.902;2023-07-31T14:38:49;9.10;;;3.23;;
4835;SDS011;66719;51.226;6.902;2023-07-31T14:41:15;11.23;;;3.50;;
4835;SDS011;66719;51.226;6.902;2023-07-31T14:43:42;10.23;;;3.57;;
4835;SDS011;66719;51.226;6.902;2023-07-31T14:46:09;16.40;;;8.20;;
4835;SDS011;66719;51.226;6.902;2023-07-31T14:48:35;12.53;;;4.40;;
4835;SDS011;66719;51.226;6.902;2023-07-31T14:51:02;9.40;;;3.43;;
4835;SDS011;66719;51.226;6.902;2023-07-31T14:53:28;9.03;;;3.30;;
4835;SDS011;66719;51.226;6.902;2023-07-31T14:55:55;14.17;;;4.10;;
4835;SDS011;66719;51.226;6.902;2023-07-31T14:58:22;12.03;;;4.03;;
4835;SDS011;66719;51.226;6.902;2023-07-31T15:00:49;10.97;;;4.37;;
4835;SDS011;66719;51.226;6.902;2023-07-31T15:03:15;16.03;;;7.80;;